If you wish to contribute or participate in the discussions about articles you are invited to join SKYbrary as a registered user

 Actions

Birdsville Airport

From SKYbrary Wiki

YBDV
Airport
ICAO: YBDV – IATA: BVI
Summary
Name Birdsville Airport
Region Asia and Pacific
Territory "YB" is not in the list (AG, AN, AY, BG, BI, BK, C, CT, DA, DB, ...) of allowed values for the "ICAO Territory" property.
Location , Queensland
Serving Birdsville
Elevation 48.463 m
159 ft
159 ft48.463 m
Type medium airport
Coordinates 25° 53' 51.00" S, 139° 20' 52.80" E
Runways
Designator Length Width Surface ROPS
3/21 1200 m3,937.008 ft
18 m59.055 ft
CLA /
14/32 1732 m5,682.415 ft
30 m98.425 ft
ASP /


METAR
Observation YBDV 181700Z AUTO 18006KT //// // ////// 24/13 Q1009
Station Birdsville Airport
Date/Time 18 March 2019 17:00:00
Wind direction 180°
Wind speed 06 kts
Lowest cloud amount n/a
Temperature 24°C
Dew point 13°C
Humidity 50%
QNH 1009 hPa
Weather condition n/a